createdAt,value
2019-05-01T00:01:01.387Z,52.23
2019-05-01T00:03:34.746Z,46.80
2019-05-01T00:06:04.816Z,58.37
2019-05-01T00:08:33.260Z,53.03
2019-05-01T00:11:01.861Z,45.20
2019-05-01T00:13:30.293Z,48.60
2019-05-01T00:15:58.990Z,45.87
2019-05-01T00:18:27.867Z,54.33
2019-05-01T00:20:56.298Z,49.73
2019-05-01T00:23:24.745Z,43.47
2019-05-01T00:25:53.175Z,53.90
2019-05-01T00:28:21.702Z,44.33
2019-05-01T00:30:50.142Z,52.40
2019-05-01T00:33:18.585Z,56.83
2019-05-01T00:35:47.277Z,49.70
2019-05-01T00:38:15.846Z,45.63
2019-05-01T00:40:46.029Z,47.37
2019-05-01T00:43:14.576Z,39.10
2019-05-01T00:45:43.397Z,42.23
2019-05-01T00:48:11.828Z,35.37
2019-05-01T00:50:40.269Z,42.37
2019-05-01T00:53:08.707Z,44.13
2019-05-01T00:55:38.955Z,35.60
2019-05-01T00:58:12.349Z,41.03
2019-05-01T01:00:58.762Z,38.00
2019-05-01T01:03:27.560Z,38.07
2019-05-01T01:05:56.050Z,39.47
2019-05-01T01:08:24.476Z,45.53
2019-05-01T01:10:52.906Z,32.33
2019-05-01T01:13:21.338Z,35.73
2019-05-01T01:15:49.774Z,34.27
2019-05-01T01:18:18.202Z,30.63
2019-05-01T01:20:46.637Z,34.70
2019-05-01T01:23:15.238Z,27.60
2019-05-01T01:25:43.682Z,34.93
2019-05-01T01:28:12.549Z,30.20
2019-05-01T01:30:41.141Z,27.80
2019-05-01T01:33:09.576Z,32.73
2019-05-01T01:35:38.008Z,31.10
2019-05-01T01:38:06.440Z,26.83
2019-05-01T01:40:35.756Z,32.93
2019-05-01T01:43:22.345Z,34.47
2019-05-01T01:45:52.494Z,35.87
2019-05-01T01:48:20.919Z,38.33
2019-05-01T01:50:49.520Z,36.83
2019-05-01T01:53:20.897Z,38.30
2019-05-01T01:55:50.168Z,35.13
2019-05-01T01:58:20.190Z,38.47
2019-05-01T02:01:09.193Z,33.83
2019-05-01T02:03:35.817Z,28.87
2019-05-01T02:06:04.334Z,35.97
2019-05-01T02:08:32.771Z,36.43
2019-05-01T02:11:03.001Z,29.73
2019-05-01T02:13:31.931Z,30.10
2019-05-01T02:16:00.374Z,37.17
2019-05-01T02:18:28.982Z,32.87
2019-05-01T02:20:57.481Z,36.33
2019-05-01T02:23:25.951Z,32.13
2019-05-01T02:25:54.378Z,29.20
2019-05-01T02:28:43.101Z,30.43
2019-05-01T02:31:28.135Z,32.90
2019-05-01T02:33:55.193Z,26.40
2019-05-01T02:36:25.431Z,27.33
2019-05-01T02:38:55.625Z,25.77
2019-05-01T02:41:27.417Z,28.80
2019-05-01T02:43:59.102Z,23.77
2019-05-01T02:46:29.107Z,30.30
2019-05-01T02:49:17.978Z,24.43
2019-05-01T02:51:47.642Z,27.60
2019-05-01T02:54:18.509Z,32.73
2019-05-01T02:56:52.999Z,25.00
2019-05-01T02:59:23.167Z,24.17
2019-05-01T03:01:52.496Z,22.50
2019-05-01T03:04:20.930Z,28.30
2019-05-01T03:06:50.197Z,27.50
2019-05-01T03:09:20.074Z,28.10
2019-05-01T03:11:50.709Z,24.63
2019-05-01T03:14:22.082Z,25.17
2019-05-01T03:16:53.017Z,30.53
2019-05-01T03:19:25.082Z,26.97
2019-05-01T03:22:01.023Z,22.57
2019-05-01T03:24:30.002Z,23.67
2019-05-01T03:26:58.701Z,27.67
2019-05-01T03:29:27.711Z,26.00
2019-05-01T03:32:15.595Z,29.77
2019-05-01T03:34:27.853Z,25.63
2019-05-01T03:36:56.838Z,28.43
2019-05-01T03:39:25.288Z,34.03
2019-05-01T03:41:54.278Z,35.90
2019-05-01T03:44:23.187Z,31.97
2019-05-01T03:46:51.686Z,34.17
2019-05-01T03:49:20.603Z,31.40
2019-05-01T03:51:49.275Z,35.13
2019-05-01T03:54:17.726Z,31.00
2019-05-01T03:56:46.433Z,32.63
2019-05-01T03:59:15.588Z,28.23
2019-05-01T04:01:46.089Z,33.50
2019-05-01T04:04:22.471Z,26.10
2019-05-01T04:06:51.191Z,35.53
2019-05-01T04:09:19.639Z,34.87
2019-05-01T04:11:48.414Z,33.57
2019-05-01T04:14:17.295Z,33.47
2019-05-01T04:16:47.901Z,32.47
2019-05-01T04:19:17.104Z,28.97
2019-05-01T04:22:03.176Z,24.13
2019-05-01T04:24:32.557Z,27.43
2019-05-01T04:27:03.423Z,27.63
2019-05-01T04:29:33.762Z,28.03
2019-05-01T04:32:16.766Z,30.17
2019-05-01T04:34:56.305Z,25.93
2019-05-01T04:37:26.090Z,24.53
2019-05-01T04:39:55.179Z,24.43
2019-05-01T04:42:24.214Z,19.63
2019-05-01T04:44:53.400Z,20.23
2019-05-01T04:47:22.959Z,28.23
2019-05-01T04:49:51.685Z,21.80
2019-05-01T04:52:21.573Z,24.10
2019-05-01T04:54:50.274Z,28.93
2019-05-01T04:57:18.979Z,20.70
2019-05-01T04:59:47.937Z,23.70
2019-05-01T05:02:18.282Z,22.13
2019-05-01T05:04:47.164Z,22.10
2019-05-01T05:07:16.142Z,28.23
2019-05-01T05:09:46.953Z,25.47
2019-05-01T05:12:35.139Z,17.53
2019-05-01T05:15:20.973Z,19.87
2019-05-01T05:17:49.582Z,26.67
2019-05-01T05:20:18.353Z,13.67
2019-05-01T05:22:47.330Z,13.87
2019-05-01T05:25:16.294Z,16.87
2019-05-01T05:27:46.473Z,16.60
2019-05-01T05:30:14.962Z,16.70
2019-05-01T05:32:44.154Z,19.57
2019-05-01T05:35:14.686Z,14.70
2019-05-01T05:37:56.247Z,14.67
2019-05-01T05:40:27.117Z,26.63
2019-05-01T05:42:55.817Z,21.30
2019-05-01T05:45:24.513Z,15.07
2019-05-01T05:47:54.589Z,13.97
2019-05-01T05:50:25.625Z,18.53
2019-05-01T05:53:13.842Z,17.90
2019-05-01T05:55:56.406Z,19.17
2019-05-01T05:58:27.057Z,25.50
2019-05-01T06:00:59.733Z,15.63
2019-05-01T06:03:47.105Z,14.90
2019-05-01T06:06:35.068Z,18.90
2019-05-01T06:09:08.931Z,15.47
2019-05-01T06:11:53.018Z,17.77
2019-05-01T06:14:40.562Z,14.07
2019-05-01T06:17:16.701Z,18.93
2019-05-01T06:19:55.521Z,21.53
2019-05-01T06:22:28.882Z,19.90
2019-05-01T06:25:05.327Z,18.03
2019-05-01T06:27:35.841Z,18.43
2019-05-01T06:30:10.899Z,15.07
2019-05-01T06:32:39.813Z,12.80
2019-05-01T06:35:07.845Z,19.93
2019-05-01T06:37:45.226Z,13.17
2019-05-01T06:40:18.756Z,11.33
2019-05-01T06:42:45.797Z,17.63
2019-05-01T06:45:16.887Z,14.00
2019-05-01T06:47:48.286Z,14.67
2019-05-01T06:50:27.486Z,12.47
2019-05-01T06:52:59.817Z,16.50
2019-05-01T06:55:28.909Z,15.50
2019-05-01T06:57:57.842Z,14.30
2019-05-01T07:00:26.809Z,12.70
2019-05-01T07:02:57.306Z,14.60
2019-05-01T07:05:29.104Z,16.17
2019-05-01T07:08:00.233Z,14.70
2019-05-01T07:10:42.482Z,17.03
2019-05-01T07:13:04.842Z,14.20
2019-05-01T07:15:32.200Z,15.20
2019-05-01T07:18:02.426Z,12.47
2019-05-01T07:20:35.735Z,15.33
2019-05-01T07:23:05.311Z,22.80
2019-05-01T07:25:34.827Z,14.40
2019-05-01T07:28:04.169Z,10.57
2019-05-01T07:30:37.493Z,13.80
2019-05-01T07:33:06.166Z,10.97
2019-05-01T07:35:36.720Z,16.07
2019-05-01T07:38:05.473Z,12.80
2019-05-01T07:40:36.197Z,13.77
2019-05-01T07:43:13.021Z,14.70
2019-05-01T07:45:43.603Z,17.97
2019-05-01T07:48:15.456Z,20.83
2019-05-01T07:50:44.734Z,27.77
2019-05-01T07:53:13.182Z,20.97
2019-05-01T07:55:42.166Z,20.50
2019-05-01T07:58:15.898Z,17.57
2019-05-01T08:00:54.046Z,22.43
2019-05-01T08:03:23.657Z,14.67
2019-05-01T08:05:52.109Z,16.80
2019-05-01T08:08:20.533Z,14.37
2019-05-01T08:10:50.373Z,9.57
2019-05-01T08:13:18.800Z,10.83
2019-05-01T08:15:47.225Z,20.67
2019-05-01T08:18:32.358Z,10.63
2019-05-01T08:21:21.185Z,12.90
2019-05-01T08:23:48.989Z,9.47
2019-05-01T08:26:19.150Z,12.23
2019-05-01T08:29:06.844Z,11.07
2019-05-01T08:31:37.166Z,7.07
2019-05-01T08:34:10.097Z,10.20
2019-05-01T08:36:42.588Z,4.13
2019-05-01T08:39:13.816Z,7.17
2019-05-01T08:41:41.627Z,8.50
2019-05-01T08:44:10.053Z,8.97
2019-05-01T08:46:52.217Z,9.47
2019-05-01T08:49:42.240Z,10.10
2019-05-01T08:52:13.669Z,10.73
2019-05-01T08:54:41.133Z,10.60
2019-05-01T08:57:09.628Z,6.80
2019-05-01T08:59:38.077Z,10.63
2019-05-01T09:02:09.312Z,11.13
2019-05-01T09:04:36.918Z,8.00
2019-05-01T09:07:05.406Z,8.10
2019-05-01T09:09:33.914Z,6.83
2019-05-01T09:12:02.361Z,7.10
2019-05-01T09:14:35.033Z,8.13
2019-05-01T09:17:03.754Z,6.90
2019-05-01T09:19:32.183Z,8.90
2019-05-01T09:22:00.609Z,9.73
2019-05-01T09:24:29.441Z,12.07
2019-05-01T09:27:18.837Z,10.50
2019-05-01T09:29:52.868Z,8.80
2019-05-01T09:32:21.429Z,13.03
2019-05-01T09:34:49.853Z,9.50
2019-05-01T09:37:18.388Z,6.87
2019-05-01T09:39:47.430Z,8.77
2019-05-01T09:42:22.746Z,10.00
2019-05-01T09:44:46.721Z,11.90
2019-05-01T09:47:16.979Z,5.73
2019-05-01T09:49:48.686Z,7.40
2019-05-01T09:52:23.500Z,7.07
2019-05-01T09:54:54.737Z,9.00
2019-05-01T09:57:23.222Z,8.10
2019-05-01T09:59:51.658Z,5.10
2019-05-01T10:02:20.077Z,8.30
2019-05-01T10:04:48.639Z,8.90
2019-05-01T10:07:17.138Z,8.20
2019-05-01T10:09:47.367Z,8.40
2019-05-01T10:12:16.629Z,7.97
2019-05-01T10:14:45.076Z,5.90
2019-05-01T10:17:15.682Z,7.27
2019-05-01T10:19:44.157Z,8.73
2019-05-01T10:22:12.585Z,14.60
2019-05-01T10:24:41.049Z,12.60
2019-05-01T10:27:11.107Z,7.10
2019-05-01T10:30:01.603Z,6.33
2019-05-01T10:32:29.331Z,8.70
2019-05-01T10:34:59.394Z,6.53
2019-05-01T10:37:28.485Z,6.97
2019-05-01T10:39:58.107Z,8.90
2019-05-01T10:42:26.542Z,15.40
2019-05-01T10:44:59.351Z,12.80
2019-05-01T10:47:27.783Z,7.50
2019-05-01T10:49:57.573Z,5.50
2019-05-01T10:52:27.433Z,8.83
2019-05-01T10:54:55.876Z,6.97
2019-05-01T10:57:24.297Z,9.57
2019-05-01T10:59:52.738Z,9.40
2019-05-01T11:02:21.173Z,8.40
2019-05-01T11:04:49.591Z,11.10
2019-05-01T11:07:18.026Z,18.77
2019-05-01T11:09:46.471Z,11.50
2019-05-01T11:12:15.070Z,10.63
2019-05-01T11:14:43.504Z,8.47
2019-05-01T11:17:11.934Z,9.27
2019-05-01T11:19:42.004Z,8.33
2019-05-01T11:22:11.005Z,8.40
2019-05-01T11:24:39.525Z,10.00
2019-05-01T11:27:08.102Z,13.37
2019-05-01T11:29:36.599Z,11.30
2019-05-01T11:32:12.269Z,11.33
2019-05-01T11:34:57.641Z,12.10
2019-05-01T11:37:36.773Z,13.93
2019-05-01T11:40:09.967Z,8.67
2019-05-01T11:42:38.394Z,7.83
2019-05-01T11:45:10.292Z,7.20
2019-05-01T11:47:40.287Z,8.60
2019-05-01T11:50:08.987Z,11.00
2019-05-01T11:52:37.419Z,7.80
2019-05-01T11:55:06.882Z,9.33
2019-05-01T11:57:35.638Z,9.67
2019-05-01T12:00:07.418Z,8.13
2019-05-01T12:02:35.997Z,5.60
2019-05-01T12:05:05.558Z,8.03
2019-05-01T12:07:33.990Z,9.00
2019-05-01T12:10:02.537Z,6.30
2019-05-01T12:12:32.653Z,10.10
2019-05-01T12:15:01.065Z,8.53
2019-05-01T12:17:31.141Z,13.90
2019-05-01T12:19:59.565Z,9.53
2019-05-01T12:22:28.027Z,8.50
2019-05-01T12:24:56.449Z,9.90
2019-05-01T12:27:24.922Z,9.80
2019-05-01T12:29:53.508Z,15.63
2019-05-01T12:32:21.936Z,8.37
2019-05-01T12:34:50.414Z,7.80
2019-05-01T12:37:20.659Z,11.90
2019-05-01T12:39:49.083Z,8.97
2019-05-01T12:42:19.140Z,8.67
2019-05-01T12:44:47.583Z,11.37
2019-05-01T12:47:17.641Z,12.43
2019-05-01T12:49:47.756Z,9.67
2019-05-01T12:52:17.810Z,14.10
2019-05-01T12:54:47.885Z,7.60
2019-05-01T12:57:18.074Z,13.43
2019-05-01T12:59:46.821Z,8.27
2019-05-01T13:02:15.354Z,8.90
2019-05-01T13:04:43.795Z,10.87
2019-05-01T13:07:12.590Z,11.63
2019-05-01T13:09:41.039Z,8.80
2019-05-01T13:12:09.467Z,13.20
2019-05-01T13:14:37.901Z,10.50
2019-05-01T13:17:06.325Z,11.53
2019-05-01T13:19:34.769Z,9.63
2019-05-01T13:22:05.338Z,14.37
2019-05-01T13:24:35.010Z,11.50
2019-05-01T13:27:11.866Z,13.80
2019-05-01T13:29:44.962Z,18.83
2019-05-01T13:32:24.268Z,14.90
2019-05-01T13:34:52.761Z,18.20
2019-05-01T13:37:23.809Z,9.47
2019-05-01T13:39:52.521Z,14.30
2019-05-01T13:42:20.950Z,16.43
2019-05-01T13:44:49.377Z,9.43
2019-05-01T13:47:17.805Z,14.93
2019-05-01T13:49:46.418Z,11.23
2019-05-01T13:52:15.047Z,12.37
2019-05-01T13:54:43.953Z,9.53
2019-05-01T13:57:12.431Z,10.17
2019-05-01T13:59:42.443Z,18.27
2019-05-01T14:02:11.004Z,14.77
2019-05-01T14:04:39.748Z,12.00
2019-05-01T14:07:16.402Z,14.53
2019-05-01T14:09:39.130Z,14.60
2019-05-01T14:12:07.590Z,18.37
2019-05-01T14:14:36.022Z,17.70
2019-05-01T14:17:04.461Z,14.50
2019-05-01T14:19:34.271Z,16.87
2019-05-01T14:22:10.422Z,17.60
2019-05-01T14:24:41.736Z,17.73
2019-05-01T14:27:11.387Z,14.70
2019-05-01T14:29:39.809Z,18.57
2019-05-01T14:32:08.266Z,14.13
2019-05-01T14:34:37.258Z,20.97
2019-05-01T14:37:05.785Z,21.90
2019-05-01T14:39:34.239Z,18.80
2019-05-01T14:42:02.694Z,22.40
2019-05-01T14:44:36.874Z,22.57
2019-05-01T14:47:01.489Z,12.90
2019-05-01T14:49:29.975Z,22.73
2019-05-01T14:51:58.425Z,15.70
2019-05-01T14:54:27.192Z,15.00
2019-05-01T14:56:57.113Z,16.90
2019-05-01T14:59:25.546Z,19.23
2019-05-01T15:01:54.033Z,23.33
2019-05-01T15:04:22.467Z,17.30
2019-05-01T15:06:52.158Z,13.87
2019-05-01T15:09:20.585Z,19.47
2019-05-01T15:11:52.314Z,16.20
2019-05-01T15:14:34.480Z,18.20
2019-05-01T15:17:10.081Z,16.20
2019-05-01T15:19:42.897Z,13.97
2019-05-01T15:22:12.710Z,16.77
2019-05-01T15:24:41.169Z,15.77
2019-05-01T15:27:09.607Z,24.77
2019-05-01T15:29:38.037Z,15.90
2019-05-01T15:32:06.495Z,15.50
2019-05-01T15:34:36.037Z,14.70
2019-05-01T15:37:04.793Z,14.77
2019-05-01T15:39:34.925Z,19.20
2019-05-01T15:42:10.720Z,15.07
2019-05-01T15:44:40.809Z,20.37
2019-05-01T15:47:09.254Z,15.50
2019-05-01T15:49:37.702Z,19.60
2019-05-01T15:52:06.150Z,15.07
2019-05-01T15:54:34.654Z,12.67
2019-05-01T15:57:03.085Z,12.77
2019-05-01T15:59:31.521Z,13.93
2019-05-01T16:01:59.965Z,11.70
2019-05-01T16:04:28.561Z,9.90
2019-05-01T16:06:56.985Z,14.90
2019-05-01T16:09:27.116Z,13.40
2019-05-01T16:12:08.926Z,14.60
2019-05-01T16:14:38.910Z,20.80
2019-05-01T16:17:07.339Z,16.23
2019-05-01T16:19:35.788Z,11.30
2019-05-01T16:22:04.593Z,18.53
2019-05-01T16:24:33.588Z,21.00
2019-05-01T16:27:02.014Z,15.10
2019-05-01T16:29:32.089Z,24.90
2019-05-01T16:32:00.525Z,18.53
2019-05-01T16:34:29.021Z,19.83
2019-05-01T16:36:57.447Z,21.10
2019-05-01T16:39:27.514Z,18.27
2019-05-01T16:41:57.106Z,16.53
2019-05-01T16:44:25.589Z,22.03
2019-05-01T16:46:54.017Z,20.03
2019-05-01T16:49:24.269Z,22.03
2019-05-01T16:51:52.687Z,16.87
2019-05-01T16:54:21.126Z,15.93
2019-05-01T16:56:49.929Z,14.63
2019-05-01T16:59:18.372Z,25.80
2019-05-01T17:01:51.409Z,18.13
2019-05-01T17:04:33.657Z,15.10
2019-05-01T17:07:06.390Z,15.43
2019-05-01T17:09:48.745Z,20.33
2019-05-01T17:12:18.951Z,13.60
2019-05-01T17:14:47.380Z,17.20
2019-05-01T17:17:17.449Z,14.90
2019-05-01T17:19:46.043Z,17.87
2019-05-01T17:22:16.068Z,18.17
2019-05-01T17:24:44.784Z,18.20
2019-05-01T17:27:13.205Z,15.00
2019-05-01T17:29:41.627Z,16.07
2019-05-01T17:32:11.748Z,17.23
2019-05-01T17:34:40.170Z,16.40
2019-05-01T17:37:08.605Z,19.20
2019-05-01T17:39:37.028Z,21.77
2019-05-01T17:42:05.905Z,20.73
2019-05-01T17:44:34.510Z,22.43
2019-05-01T17:47:02.969Z,19.77
2019-05-01T17:49:32.947Z,18.53
2019-05-01T17:52:02.365Z,23.07
2019-05-01T17:54:32.150Z,22.00
2019-05-01T17:57:00.586Z,18.50
2019-05-01T17:59:29.022Z,17.23
2019-05-01T18:01:59.230Z,19.93
2019-05-01T18:04:29.303Z,18.40
2019-05-01T18:06:57.741Z,10.30
2019-05-01T18:09:26.174Z,15.37
2019-05-01T18:11:54.617Z,13.57
2019-05-01T18:14:23.049Z,12.80
2019-05-01T18:16:51.485Z,10.47
2019-05-01T18:19:19.913Z,15.30
2019-05-01T18:21:52.152Z,23.20
2019-05-01T18:24:39.848Z,16.40
2019-05-01T18:27:27.959Z,21.63
2019-05-01T18:29:58.025Z,20.13
2019-05-01T18:32:28.138Z,14.87
2019-05-01T18:34:56.554Z,14.83
2019-05-01T18:37:26.630Z,16.07
2019-05-01T18:39:55.105Z,17.13
2019-05-01T18:42:23.783Z,13.83
2019-05-01T18:44:53.917Z,13.57
2019-05-01T18:47:22.717Z,9.27
2019-05-01T18:49:53.275Z,16.93
2019-05-01T18:52:23.252Z,14.40
2019-05-01T18:54:52.940Z,13.60
2019-05-01T18:57:21.566Z,14.17
2019-05-01T18:59:50.025Z,10.00
2019-05-01T19:02:20.598Z,10.17
2019-05-01T19:04:49.023Z,9.40
2019-05-01T19:07:17.450Z,14.40
2019-05-01T19:09:46.058Z,14.80
2019-05-01T19:12:16.123Z,13.97
2019-05-01T19:14:44.568Z,13.50
2019-05-01T19:17:12.990Z,12.70
2019-05-01T19:19:41.459Z,8.67
2019-05-01T19:22:10.223Z,8.10
2019-05-01T19:24:40.123Z,11.60
2019-05-01T19:27:09.041Z,11.53
2019-05-01T19:29:37.853Z,6.30
2019-05-01T19:32:07.393Z,11.50
2019-05-01T19:34:35.988Z,9.60
2019-05-01T19:37:05.033Z,10.00
2019-05-01T19:39:43.454Z,9.77
2019-05-01T19:42:04.190Z,12.47
2019-05-01T19:44:32.701Z,10.60
2019-05-01T19:47:01.307Z,16.60
2019-05-01T19:49:30.859Z,5.90
2019-05-01T19:52:01.886Z,12.30
2019-05-01T19:54:30.896Z,15.77
2019-05-01T19:56:59.417Z,10.33
2019-05-01T19:59:27.885Z,9.50
2019-05-01T20:01:56.349Z,10.37
2019-05-01T20:04:24.834Z,7.90
2019-05-01T20:06:53.393Z,10.27
2019-05-01T20:09:22.773Z,10.03
2019-05-01T20:11:51.205Z,9.57
2019-05-01T20:14:19.688Z,10.77
2019-05-01T20:16:50.865Z,8.10
2019-05-01T20:19:18.390Z,15.67
2019-05-01T20:21:47.353Z,13.73
2019-05-01T20:24:19.117Z,12.90
2019-05-01T20:26:56.904Z,10.60
2019-05-01T20:29:28.039Z,9.23
2019-05-01T20:31:56.537Z,6.03
2019-05-01T20:34:24.970Z,6.67
2019-05-01T20:36:53.582Z,12.17
2019-05-01T20:39:23.738Z,18.67
2019-05-01T20:41:52.246Z,12.77
2019-05-01T20:44:23.953Z,16.53
2019-05-01T20:46:50.921Z,8.60
2019-05-01T20:49:19.423Z,10.83
2019-05-01T20:51:47.873Z,11.47
2019-05-01T20:54:16.295Z,8.80
2019-05-01T20:56:49.417Z,6.63
2019-05-01T20:59:17.843Z,10.63
2019-05-01T21:01:46.307Z,10.97
2019-05-01T21:04:32.664Z,13.53
2019-05-01T21:07:19.847Z,9.80
2019-05-01T21:10:00.808Z,11.83
2019-05-01T21:12:31.941Z,11.57
2019-05-01T21:15:00.393Z,15.00
2019-05-01T21:17:31.537Z,11.83
2019-05-01T21:19:59.969Z,15.37
2019-05-01T21:22:28.406Z,16.83
2019-05-01T21:24:58.212Z,17.00
2019-05-01T21:27:26.642Z,7.40
2019-05-01T21:29:55.070Z,11.60
2019-05-01T21:32:27.354Z,8.83
2019-05-01T21:34:54.070Z,11.90
2019-05-01T21:37:27.677Z,12.00
2019-05-01T21:39:56.130Z,10.60
2019-05-01T21:42:24.675Z,12.00
2019-05-01T21:44:53.446Z,21.80
2019-05-01T21:47:23.639Z,9.63
2019-05-01T21:49:52.970Z,13.80
2019-05-01T21:52:25.100Z,6.70
2019-05-01T21:54:55.490Z,12.30
2019-05-01T21:57:22.134Z,11.67
2019-05-01T21:59:50.553Z,15.23
2019-05-01T22:02:18.973Z,7.40
2019-05-01T22:04:47.433Z,13.37
2019-05-01T22:07:15.936Z,20.43
2019-05-01T22:09:45.751Z,8.13
2019-05-01T22:12:14.725Z,15.90
2019-05-01T22:14:44.805Z,14.23
2019-05-01T22:17:16.065Z,10.60
2019-05-01T22:19:44.493Z,9.03
2019-05-01T22:22:30.832Z,8.40
2019-05-01T22:25:00.909Z,11.90
2019-05-01T22:27:30.974Z,9.40
2019-05-01T22:30:05.749Z,10.70
2019-05-01T22:32:38.708Z,11.87
2019-05-01T22:35:11.406Z,12.10
2019-05-01T22:37:39.857Z,15.10
2019-05-01T22:40:10.567Z,13.00
2019-05-01T22:42:38.991Z,23.33
2019-05-01T22:45:09.434Z,12.67
2019-05-01T22:47:37.854Z,11.97
2019-05-01T22:50:08.895Z,7.90
2019-05-01T22:52:37.343Z,15.70
2019-05-01T22:55:07.478Z,10.60
2019-05-01T22:57:36.270Z,5.90
2019-05-01T23:00:06.409Z,22.33
2019-05-01T23:02:41.893Z,10.03
2019-05-01T23:05:11.166Z,10.57
2019-05-01T23:07:39.595Z,14.03
2019-05-01T23:10:11.626Z,10.50
2019-05-01T23:12:40.051Z,8.63
2019-05-01T23:15:25.971Z,9.53
2019-05-01T23:17:54.403Z,3.17
2019-05-01T23:20:23.213Z,8.40
2019-05-01T23:22:51.647Z,7.93
2019-05-01T23:25:20.073Z,11.47
2019-05-01T23:27:48.488Z,9.17
2019-05-01T23:30:20.141Z,11.67
2019-05-01T23:32:48.558Z,10.43
2019-05-01T23:35:16.995Z,11.00
2019-05-01T23:37:45.421Z,6.60
2019-05-01T23:40:15.491Z,10.27
2019-05-01T23:42:52.383Z,17.77
2019-05-01T23:45:14.757Z,8.77
2019-05-01T23:47:43.869Z,10.10
2019-05-01T23:50:13.357Z,11.10
2019-05-01T23:52:41.778Z,6.20
2019-05-01T23:55:10.945Z,9.50
2019-05-01T23:57:39.368Z,6.53
